createdAt,value
2023-04-15T00:01:51.650Z,2.01
2023-04-15T00:04:18.501Z,2.03
2023-04-15T00:06:51.894Z,1.82
2023-04-15T00:09:19.511Z,1.53
2023-04-15T00:11:46.383Z,0.31
2023-04-15T00:14:13.479Z,0.90
2023-04-15T00:16:40.086Z,1.17
2023-04-15T00:19:06.770Z,1.64
2023-04-15T00:21:33.552Z,1.82
2023-04-15T00:24:00.281Z,1.75
2023-04-15T00:26:27.108Z,1.88
2023-04-15T00:28:53.914Z,1.88
2023-04-15T00:31:21.003Z,1.63
2023-04-15T00:33:47.944Z,1.31
2023-04-15T00:36:14.709Z,1.26
2023-04-15T00:38:41.478Z,1.21
2023-04-15T00:41:09.103Z,1.25
2023-04-15T00:43:35.775Z,1.11
2023-04-15T00:46:04.886Z,1.26
2023-04-15T00:48:32.309Z,1.25
2023-04-15T00:50:59.232Z,0.98
2023-04-15T00:53:25.883Z,0.77
2023-04-15T00:55:52.530Z,0.68
2023-04-15T00:58:19.269Z,0.29
2023-04-15T01:00:46.193Z,0.65
2023-04-15T01:03:12.939Z,0.99
2023-04-15T01:05:39.732Z,0.46
2023-04-15T01:08:06.425Z,-0.03
2023-04-15T01:10:33.356Z,0.55
2023-04-15T01:13:00.200Z,1.17
2023-04-15T01:15:27.619Z,1.51
2023-04-15T01:17:54.340Z,1.45
2023-04-15T01:20:22.262Z,0.85
2023-04-15T01:22:49.468Z,1.28
2023-04-15T01:25:20.388Z,1.63
2023-04-15T01:27:47.666Z,1.29
2023-04-15T01:30:14.315Z,1.65
2023-04-15T01:32:41.027Z,1.98
2023-04-15T01:35:08.934Z,2.00
2023-04-15T01:37:35.954Z,1.48
2023-04-15T01:40:03.446Z,1.41
2023-04-15T01:42:30.071Z,1.05
2023-04-15T01:44:57.118Z,1.52
2023-04-15T01:47:23.747Z,2.02
2023-04-15T01:49:50.524Z,2.03
2023-04-15T01:52:17.226Z,2.01
2023-04-15T01:54:43.936Z,1.95
2023-04-15T01:57:10.565Z,2.02
2023-04-15T01:59:37.352Z,1.63
2023-04-15T02:02:04.576Z,1.65
2023-04-15T02:04:31.786Z,1.99
2023-04-15T02:06:58.474Z,1.89
2023-04-15T02:09:25.100Z,1.61
2023-04-15T02:11:53.710Z,1.12
2023-04-15T02:14:20.411Z,1.59
2023-04-15T02:16:47.010Z,2.09
2023-04-15T02:19:14.076Z,2.33
2023-04-15T02:21:40.741Z,2.33
2023-04-15T02:24:07.534Z,1.98
2023-04-15T02:26:34.171Z,2.19
2023-04-15T02:29:01.148Z,2.04
2023-04-15T02:31:28.152Z,1.55
2023-04-15T02:33:55.038Z,1.63
2023-04-15T02:36:21.678Z,1.62
2023-04-15T02:38:48.322Z,1.90
2023-04-15T02:41:15.045Z,2.08
2023-04-15T02:43:41.693Z,2.06
2023-04-15T02:46:08.564Z,2.19
2023-04-15T02:48:35.320Z,2.15
2023-04-15T02:51:20.934Z,2.29
2023-04-15T02:53:48.583Z,2.32
2023-04-15T02:56:15.978Z,2.35
2023-04-15T02:58:43.634Z,2.27
2023-04-15T03:01:10.460Z,2.06
2023-04-15T03:03:37.272Z,2.14
2023-04-15T03:06:04.004Z,2.26
2023-04-15T03:08:30.681Z,2.25
2023-04-15T03:11:00.732Z,2.14
2023-04-15T03:13:27.396Z,2.06
2023-04-15T03:15:54.374Z,1.82
2023-04-15T03:18:21.598Z,2.02
2023-04-15T03:20:48.270Z,2.26
2023-04-15T03:23:14.960Z,2.23
2023-04-15T03:25:41.731Z,2.32
2023-04-15T03:28:08.476Z,2.26
2023-04-15T03:30:35.080Z,1.83
2023-04-15T03:33:01.847Z,1.76
2023-04-15T03:35:28.587Z,1.84
2023-04-15T03:37:55.611Z,1.97
2023-04-15T03:40:22.648Z,1.88
2023-04-15T03:42:49.390Z,2.06
2023-04-15T03:45:16.143Z,1.07
2023-04-15T03:47:43.073Z,1.45
2023-04-15T03:50:10.158Z,1.53
2023-04-15T03:52:36.761Z,1.51
2023-04-15T03:55:03.488Z,1.79
2023-04-15T03:57:30.268Z,1.94
2023-04-15T03:59:56.976Z,1.93
2023-04-15T04:02:23.866Z,1.91
2023-04-15T04:04:50.896Z,1.92
2023-04-15T04:07:18.208Z,2.04
2023-04-15T04:09:46.198Z,2.02
2023-04-15T04:12:13.955Z,2.01
2023-04-15T04:14:40.799Z,2.10
2023-04-15T04:17:07.519Z,2.10
2023-04-15T04:19:34.328Z,1.94
2023-04-15T04:22:01.108Z,1.86
2023-04-15T04:24:27.768Z,1.75
2023-04-15T04:26:54.529Z,1.66
2023-04-15T04:29:21.446Z,1.65
2023-04-15T04:31:48.781Z,1.33
2023-04-15T04:34:16.230Z,1.53
2023-04-15T04:36:42.838Z,1.72
2023-04-15T04:39:09.500Z,1.90
2023-04-15T04:41:36.314Z,1.74
2023-04-15T04:44:03.698Z,1.61
2023-04-15T04:46:30.321Z,1.72
2023-04-15T04:48:56.947Z,1.58
2023-04-15T04:51:23.675Z,1.41
2023-04-15T04:53:50.500Z,0.93
2023-04-15T04:56:17.247Z,1.63
2023-04-15T04:58:43.882Z,1.99
2023-04-15T05:01:10.654Z,2.28
2023-04-15T05:03:38.219Z,2.28
2023-04-15T05:06:07.389Z,2.63
2023-04-15T05:08:33.991Z,2.73
2023-04-15T05:11:00.668Z,2.80
2023-04-15T05:13:27.390Z,3.03
2023-04-15T05:15:54.135Z,3.08
2023-04-15T05:18:21.036Z,3.48
2023-04-15T05:20:47.826Z,3.71
2023-04-15T05:23:14.519Z,3.84
2023-04-15T05:25:41.437Z,3.92
2023-04-15T05:28:08.091Z,3.99
2023-04-15T05:30:34.682Z,4.30
2023-04-15T05:33:01.967Z,4.32
2023-04-15T05:35:28.759Z,4.34
2023-04-15T05:37:55.947Z,4.61
2023-04-15T05:40:22.987Z,4.85
2023-04-15T05:42:49.645Z,5.11
2023-04-15T05:45:16.416Z,5.28
2023-04-15T05:47:43.258Z,5.60
2023-04-15T05:50:10.428Z,5.83
2023-04-15T05:52:37.123Z,6.14
2023-04-15T05:55:04.029Z,6.44
2023-04-15T05:57:30.956Z,6.51
2023-04-15T05:59:57.984Z,6.75
2023-04-15T06:02:24.749Z,6.91
2023-04-15T06:04:51.555Z,7.14
2023-04-15T06:07:18.230Z,7.23
2023-04-15T06:09:44.967Z,7.44
2023-04-15T06:12:13.117Z,7.53
2023-04-15T06:14:40.618Z,7.78
2023-04-15T06:17:07.667Z,7.80
2023-04-15T06:19:36.222Z,7.84
2023-04-15T06:22:03.216Z,8.11
2023-04-15T06:24:29.787Z,8.40
2023-04-15T06:26:57.666Z,8.20
2023-04-15T06:29:24.355Z,8.64
2023-04-15T06:31:51.361Z,8.89
2023-04-15T06:34:18.036Z,8.74
2023-04-15T06:36:44.618Z,8.79
2023-04-15T06:39:11.311Z,8.86
2023-04-15T06:41:37.979Z,9.00
2023-04-15T06:44:04.912Z,9.11
2023-04-15T06:46:31.606Z,8.93
2023-04-15T06:48:58.216Z,8.99
2023-04-15T06:51:26.615Z,9.15
2023-04-15T06:53:54.104Z,9.20
2023-04-15T06:56:20.799Z,9.37
2023-04-15T06:58:47.448Z,9.26
2023-04-15T07:01:14.391Z,9.48
2023-04-15T07:03:42.012Z,9.46
2023-04-15T07:06:09.492Z,9.30
2023-04-15T07:08:36.286Z,9.49
2023-04-15T07:11:02.886Z,9.77
2023-04-15T07:13:31.516Z,9.72
2023-04-15T07:15:58.577Z,9.94
2023-04-15T07:18:25.603Z,9.85
2023-04-15T07:20:52.709Z,9.98
2023-04-15T07:23:19.396Z,9.80
2023-04-15T07:25:46.115Z,10.11
2023-04-15T07:28:12.810Z,9.97
2023-04-15T07:30:39.585Z,10.12
2023-04-15T07:33:06.331Z,10.01
2023-04-15T07:35:33.368Z,10.33
2023-04-15T07:38:00.086Z,10.39
2023-04-15T07:40:26.743Z,10.43
2023-04-15T07:42:53.418Z,10.32
2023-04-15T07:45:20.165Z,10.33
2023-04-15T07:47:47.003Z,10.27
2023-04-15T07:50:13.689Z,10.30
2023-04-15T07:52:40.444Z,10.52
2023-04-15T07:55:08.511Z,10.66
2023-04-15T07:57:37.820Z,10.73
2023-04-15T08:00:05.856Z,10.51
2023-04-15T08:02:32.776Z,10.73
2023-04-15T08:04:59.903Z,11.03
2023-04-15T08:07:27.427Z,10.87
2023-04-15T08:09:54.167Z,11.34
2023-04-15T08:12:20.820Z,11.22
2023-04-15T08:14:47.530Z,11.54
2023-04-15T08:17:14.161Z,11.48
2023-04-15T08:19:40.963Z,11.93
2023-04-15T08:22:15.362Z,12.16
2023-04-15T08:24:44.667Z,12.03
2023-04-15T08:27:11.433Z,12.14
2023-04-15T08:29:38.579Z,11.89
2023-04-15T08:32:06.036Z,12.32
2023-04-15T08:34:32.734Z,12.71
2023-04-15T08:36:59.407Z,12.71
2023-04-15T08:39:26.362Z,12.76
2023-04-15T08:42:00.477Z,11.98
2023-04-15T08:44:29.572Z,12.77
2023-04-15T08:46:57.200Z,12.76
2023-04-15T08:49:24.029Z,13.03
2023-04-15T08:51:50.711Z,13.23
2023-04-15T08:54:17.348Z,12.80
2023-04-15T08:56:43.892Z,12.23
2023-04-15T08:59:11.361Z,12.32
2023-04-15T09:01:38.389Z,12.68
2023-04-15T09:04:07.984Z,13.02
2023-04-15T09:06:34.880Z,13.05
2023-04-15T09:09:01.708Z,13.31
2023-04-15T09:11:30.836Z,13.55
2023-04-15T09:13:57.670Z,13.91
2023-04-15T09:16:24.641Z,14.15
2023-04-15T09:18:51.441Z,13.88
2023-04-15T09:21:18.354Z,13.87
2023-04-15T09:23:57.167Z,15.19
2023-04-15T09:26:36.495Z,15.35
2023-04-15T09:29:09.370Z,15.16
2023-04-15T09:31:39.245Z,14.94
2023-04-15T09:34:06.260Z,14.06
2023-04-15T09:36:48.083Z,14.38
2023-04-15T09:39:16.108Z,14.32
2023-04-15T09:41:43.817Z,14.77
2023-04-15T09:44:26.391Z,14.27
2023-04-15T09:46:53.087Z,14.74
2023-04-15T09:49:20.895Z,14.45
2023-04-15T09:52:01.323Z,14.66
2023-04-15T09:54:35.138Z,15.43
2023-04-15T09:57:10.844Z,15.58
2023-04-15T09:59:37.559Z,16.27
2023-04-15T10:02:05.344Z,16.04
2023-04-15T10:04:33.137Z,16.49
2023-04-15T10:06:59.864Z,16.50
2023-04-15T10:09:26.851Z,16.66
2023-04-15T10:11:53.505Z,16.99
2023-04-15T10:14:20.200Z,16.10
2023-04-15T10:16:48.957Z,15.95
2023-04-15T10:19:16.503Z,16.21
2023-04-15T10:21:45.138Z,16.48
2023-04-15T10:24:12.071Z,16.28
2023-04-15T10:26:38.739Z,16.23
2023-04-15T10:29:05.401Z,15.90
2023-04-15T10:31:32.048Z,16.29
2023-04-15T10:33:59.152Z,15.60
2023-04-15T10:36:26.061Z,15.20
2023-04-15T10:38:52.716Z,15.21
2023-04-15T10:41:26.865Z,15.30
2023-04-15T10:43:55.000Z,15.77
2023-04-15T10:46:22.348Z,16.15
2023-04-15T10:48:52.756Z,16.00
2023-04-15T10:51:30.292Z,16.21
2023-04-15T10:53:58.849Z,16.25
2023-04-15T10:56:25.759Z,15.97
2023-04-15T10:58:52.629Z,16.07
2023-04-15T11:01:23.382Z,16.15
2023-04-15T11:03:51.822Z,16.22
2023-04-15T11:06:18.621Z,16.90
2023-04-15T11:09:05.933Z,17.10
2023-04-15T11:12:05.066Z,16.18
2023-04-15T11:14:34.018Z,15.92
2023-04-15T11:17:00.672Z,15.80
2023-04-15T11:19:27.485Z,15.54
2023-04-15T11:21:54.201Z,15.88
2023-04-15T11:24:27.255Z,15.48
2023-04-15T11:26:59.907Z,15.92
2023-04-15T11:29:32.903Z,15.24
2023-04-15T11:32:07.693Z,15.18
2023-04-15T11:34:36.240Z,15.35
2023-04-15T11:37:06.534Z,14.70
2023-04-15T11:39:33.332Z,14.73
2023-04-15T11:41:59.926Z,14.93
2023-04-15T11:44:26.536Z,14.69
2023-04-15T11:46:54.758Z,15.27
2023-04-15T11:49:31.534Z,15.58
2023-04-15T11:51:58.366Z,15.35
2023-04-15T11:54:24.998Z,15.43
2023-04-15T11:56:52.464Z,15.48
2023-04-15T11:59:19.144Z,15.17
2023-04-15T12:01:47.732Z,14.88
2023-04-15T12:04:16.456Z,15.51
2023-04-15T12:06:43.411Z,15.95
2023-04-15T12:09:13.853Z,15.99
2023-04-15T12:11:47.520Z,15.66
2023-04-15T12:14:26.062Z,15.52
2023-04-15T12:16:54.209Z,15.18
2023-04-15T12:19:28.780Z,15.40
2023-04-15T12:22:03.467Z,15.61
2023-04-15T12:24:33.497Z,16.25
2023-04-15T12:27:18.299Z,16.59
2023-04-15T12:29:45.009Z,15.61
2023-04-15T12:32:11.882Z,16.15
2023-04-15T12:34:45.660Z,15.98
2023-04-15T12:37:13.247Z,16.07
2023-04-15T12:39:41.478Z,15.35
2023-04-15T12:42:08.364Z,15.55
2023-04-15T12:44:35.801Z,15.14
2023-04-15T12:47:03.231Z,15.73
2023-04-15T12:49:30.608Z,15.98
2023-04-15T12:51:57.916Z,15.62
2023-04-15T12:54:24.585Z,15.61
2023-04-15T12:56:51.315Z,15.36
2023-04-15T12:59:18.695Z,15.33
2023-04-15T13:01:46.654Z,15.78
2023-04-15T13:04:13.696Z,15.93
2023-04-15T13:06:40.508Z,15.92
2023-04-15T13:09:07.317Z,15.99
2023-04-15T13:11:34.212Z,16.05
2023-04-15T13:14:01.922Z,16.23
2023-04-15T13:16:28.761Z,16.51
2023-04-15T13:18:55.545Z,16.75
2023-04-15T13:21:22.253Z,16.69
2023-04-15T13:23:49.836Z,15.74
2023-04-15T13:26:17.926Z,15.75
2023-04-15T13:28:44.564Z,16.47
2023-04-15T13:31:11.354Z,16.65
2023-04-15T13:33:38.119Z,16.48
2023-04-15T13:36:04.805Z,15.99
2023-04-15T13:38:31.364Z,16.21
2023-04-15T13:40:58.251Z,16.17
2023-04-15T13:43:24.929Z,16.23
2023-04-15T13:45:51.908Z,16.41
2023-04-15T13:48:18.561Z,16.07
2023-04-15T13:50:45.807Z,16.21
2023-04-15T13:53:13.156Z,15.69
2023-04-15T13:55:42.562Z,15.79
2023-04-15T13:58:09.889Z,16.29
2023-04-15T14:00:36.551Z,16.67
2023-04-15T14:03:03.488Z,16.98
2023-04-15T14:05:30.363Z,17.12
2023-04-15T14:07:56.995Z,16.74
2023-04-15T14:10:23.648Z,16.96
2023-04-15T14:12:50.258Z,16.52
2023-04-15T14:15:16.997Z,15.98
2023-04-15T14:17:43.692Z,16.35
2023-04-15T14:20:10.661Z,16.32
2023-04-15T14:22:37.249Z,16.46
2023-04-15T14:25:04.891Z,16.37
2023-04-15T14:27:31.553Z,16.76
2023-04-15T14:29:58.974Z,16.96
2023-04-15T14:32:26.402Z,16.87
2023-04-15T14:34:53.074Z,16.96
2023-04-15T14:37:19.857Z,16.67
2023-04-15T14:39:46.581Z,17.25
2023-04-15T14:42:13.169Z,17.59
2023-04-15T14:44:39.750Z,17.43
2023-04-15T14:47:06.397Z,17.73
2023-04-15T14:49:32.993Z,17.16
2023-04-15T14:51:59.694Z,15.98
2023-04-15T14:54:26.332Z,16.83
2023-04-15T14:56:53.046Z,16.53
2023-04-15T14:59:19.654Z,16.61
2023-04-15T15:01:46.718Z,17.01
2023-04-15T15:04:13.680Z,16.20
2023-04-15T15:06:41.928Z,16.59
2023-04-15T15:09:08.576Z,16.79
2023-04-15T15:11:35.277Z,16.27
2023-04-15T15:14:01.982Z,17.10
2023-04-15T15:16:29.412Z,16.98
2023-04-15T15:18:56.262Z,16.94
2023-04-15T15:21:22.984Z,17.44
2023-04-15T15:23:50.944Z,17.02
2023-04-15T15:26:19.340Z,18.11
2023-04-15T15:28:46.147Z,18.18
2023-04-15T15:31:12.856Z,18.13
2023-04-15T15:33:39.790Z,17.59
2023-04-15T15:36:06.721Z,17.46
2023-04-15T15:38:33.402Z,17.05
2023-04-15T15:41:00.179Z,16.84
2023-04-15T15:43:26.794Z,16.98
2023-04-15T15:45:55.551Z,17.44
2023-04-15T15:48:23.609Z,18.02
2023-04-15T15:50:50.276Z,18.45
2023-04-15T15:53:20.878Z,17.78
2023-04-15T15:55:48.344Z,17.11
2023-04-15T15:58:15.333Z,17.21
2023-04-15T16:00:42.612Z,16.87
2023-04-15T16:03:09.416Z,16.83
2023-04-15T16:05:36.541Z,16.87
2023-04-15T16:08:03.486Z,16.67
2023-04-15T16:10:30.514Z,16.67
2023-04-15T16:12:57.293Z,16.26
2023-04-15T16:15:25.388Z,15.79
2023-04-15T16:17:52.251Z,15.77
2023-04-15T16:20:19.197Z,15.50
2023-04-15T16:22:46.472Z,15.67
2023-04-15T16:25:13.278Z,14.96
2023-04-15T16:27:57.126Z,14.91
2023-04-15T16:30:26.038Z,14.85
2023-04-15T16:32:52.945Z,14.70
2023-04-15T16:35:20.062Z,14.44
2023-04-15T16:38:07.146Z,14.59
2023-04-15T16:40:33.833Z,14.49
2023-04-15T16:43:00.668Z,14.53
2023-04-15T16:45:27.391Z,14.43
2023-04-15T16:47:54.304Z,14.39
2023-04-15T16:50:21.058Z,14.04
2023-04-15T16:52:47.737Z,14.18
2023-04-15T16:55:14.433Z,14.03
2023-04-15T16:58:02.280Z,13.90
2023-04-15T17:03:26.002Z,13.67
2023-04-15T17:05:52.666Z,13.53
2023-04-15T17:08:19.409Z,13.16
2023-04-15T17:10:46.060Z,12.98
2023-04-15T17:13:12.734Z,13.03
2023-04-15T17:15:41.091Z,12.55
2023-04-15T17:18:08.676Z,12.15
2023-04-15T17:20:35.292Z,12.55
2023-04-15T17:23:01.943Z,12.77
2023-04-15T17:25:28.739Z,13.05
2023-04-15T17:27:55.444Z,13.29
2023-04-15T17:30:22.980Z,13.12
2023-04-15T17:32:49.748Z,13.21
2023-04-15T17:35:16.517Z,13.29
2023-04-15T17:37:43.140Z,12.37
2023-04-15T17:40:10.342Z,12.72
2023-04-15T17:42:36.910Z,12.41
2023-04-15T17:45:03.738Z,12.77
2023-04-15T17:47:30.450Z,12.97
2023-04-15T17:49:57.058Z,12.91
2023-04-15T17:52:23.679Z,12.80
2023-04-15T17:54:50.373Z,12.72
2023-04-15T17:57:17.089Z,12.46
2023-04-15T17:59:45.095Z,12.54
2023-04-15T18:02:11.970Z,12.43
2023-04-15T18:04:39.187Z,12.29
2023-04-15T18:07:05.955Z,12.29
2023-04-15T18:09:32.688Z,12.08
2023-04-15T18:11:59.483Z,11.79
2023-04-15T18:14:34.139Z,11.02
2023-04-15T18:17:02.580Z,11.21
2023-04-15T18:19:30.242Z,11.13
2023-04-15T18:21:56.940Z,11.14
2023-04-15T18:24:23.695Z,11.08
2023-04-15T18:26:50.406Z,10.95
2023-04-15T18:29:18.585Z,10.50
2023-04-15T18:31:45.306Z,10.56
2023-04-15T18:34:12.531Z,10.58
2023-04-15T18:36:39.129Z,10.50
2023-04-15T18:39:06.010Z,10.49
2023-04-15T18:41:32.987Z,10.20
2023-04-15T18:43:59.611Z,9.76
2023-04-15T18:46:26.383Z,9.83
2023-04-15T18:48:53.040Z,9.74
2023-04-15T18:51:19.733Z,9.82
2023-04-15T18:53:46.398Z,9.85
2023-04-15T18:56:13.157Z,9.82
2023-04-15T18:59:25.980Z,9.76
2023-04-15T19:01:26.607Z,9.64
2023-04-15T19:03:53.449Z,9.43
2023-04-15T19:06:20.274Z,9.21
2023-04-15T19:08:46.938Z,8.87
2023-04-15T19:11:13.618Z,8.73
2023-04-15T19:13:40.626Z,8.76
2023-04-15T19:16:07.377Z,8.68
2023-04-15T19:18:34.133Z,8.58
2023-04-15T19:21:00.980Z,8.50
2023-04-15T19:23:27.623Z,7.70
2023-04-15T19:25:54.226Z,7.74
2023-04-15T19:28:20.880Z,8.11
2023-04-15T19:30:47.557Z,8.07
2023-04-15T19:33:14.235Z,7.47
2023-04-15T19:35:41.039Z,7.21
2023-04-15T19:38:07.794Z,7.61
2023-04-15T19:40:34.367Z,8.03
2023-04-15T19:43:01.099Z,8.10
2023-04-15T19:45:27.760Z,8.06
2023-04-15T19:47:54.516Z,8.11
2023-04-15T19:50:25.908Z,7.86
2023-04-15T19:52:53.024Z,7.67
2023-04-15T19:55:19.937Z,7.36
2023-04-15T19:57:46.974Z,7.35
2023-04-15T20:00:13.801Z,7.70
2023-04-15T20:02:40.551Z,7.79
2023-04-15T20:05:09.949Z,7.84
2023-04-15T20:07:36.742Z,7.72
2023-04-15T20:10:03.610Z,7.44
2023-04-15T20:12:49.277Z,7.09
2023-04-15T20:15:19.378Z,7.35
2023-04-15T20:17:46.175Z,7.55
2023-04-15T20:20:12.998Z,7.55
2023-04-15T20:22:39.647Z,7.35
2023-04-15T20:25:06.811Z,7.24
2023-04-15T20:27:33.495Z,7.49
2023-04-15T20:30:00.471Z,7.56
2023-04-15T20:32:28.402Z,7.54
2023-04-15T20:34:55.221Z,7.48
2023-04-15T20:37:22.484Z,7.39
2023-04-15T20:39:49.247Z,7.27
2023-04-15T20:42:16.205Z,7.14
2023-04-15T20:44:42.867Z,6.77
2023-04-15T20:47:09.649Z,6.77
2023-04-15T20:49:37.401Z,6.87
2023-04-15T20:52:04.687Z,6.95
2023-04-15T20:54:31.516Z,7.07
2023-04-15T20:56:58.222Z,6.86
2023-04-15T20:59:25.313Z,6.61
2023-04-15T21:01:52.132Z,6.83
2023-04-15T21:04:19.201Z,6.77
2023-04-15T21:06:45.861Z,6.09
2023-04-15T21:09:12.620Z,6.29
2023-04-15T21:11:57.512Z,6.50
2023-04-15T21:14:26.001Z,6.59
2023-04-15T21:16:52.654Z,6.79
2023-04-15T21:19:19.405Z,6.63
2023-04-15T21:21:46.189Z,6.52
2023-04-15T21:24:12.812Z,6.42
2023-04-15T21:26:39.464Z,6.35
2023-04-15T21:29:08.617Z,6.29
2023-04-15T21:31:37.284Z,6.10
2023-04-15T21:34:04.162Z,6.25
2023-04-15T21:36:31.720Z,6.18
2023-04-15T21:38:58.453Z,6.24
2023-04-15T21:41:25.442Z,6.17
2023-04-15T21:43:53.067Z,5.97
2023-04-15T21:46:23.203Z,4.87
2023-04-15T21:48:53.217Z,4.99
2023-04-15T21:51:19.989Z,5.40
2023-04-15T21:53:46.606Z,5.34
2023-04-15T21:56:13.245Z,5.41
2023-04-15T21:58:39.860Z,5.52
2023-04-15T22:01:06.627Z,5.67
2023-04-15T22:03:34.400Z,5.40
2023-04-15T22:06:04.340Z,5.47
2023-04-15T22:08:41.732Z,5.70
2023-04-15T22:11:21.032Z,5.90
2023-04-15T22:13:47.689Z,5.62
2023-04-15T22:16:14.424Z,5.75
2023-04-15T22:18:41.066Z,5.77
2023-04-15T22:21:08.012Z,5.67
2023-04-15T22:23:34.748Z,5.46
2023-04-15T22:26:01.604Z,5.48
2023-04-15T22:28:28.310Z,5.56
2023-04-15T22:30:54.982Z,5.66
2023-04-15T22:33:21.711Z,5.80
2023-04-15T22:35:48.431Z,5.73
2023-04-15T22:38:15.049Z,5.30
2023-04-15T22:40:42.172Z,4.51
2023-04-15T22:43:08.877Z,4.47
2023-04-15T22:45:35.736Z,4.77
2023-04-15T22:48:02.648Z,4.75
2023-04-15T22:50:29.379Z,5.15
2023-04-15T22:52:55.984Z,5.56
2023-04-15T22:55:22.719Z,5.66
2023-04-15T22:57:49.330Z,5.65
2023-04-15T23:00:16.014Z,5.03
2023-04-15T23:02:42.721Z,4.89
2023-04-15T23:05:13.394Z,5.38
2023-04-15T23:07:40.391Z,5.47
2023-04-15T23:10:08.113Z,5.52
2023-04-15T23:12:34.956Z,5.52
2023-04-15T23:15:01.731Z,5.36
2023-04-15T23:17:28.437Z,4.79
2023-04-15T23:19:55.080Z,5.10
2023-04-15T23:22:21.817Z,5.27
2023-04-15T23:24:48.381Z,5.14
2023-04-15T23:27:15.287Z,4.83
2023-04-15T23:29:42.113Z,4.76
2023-04-15T23:32:08.808Z,4.35
2023-04-15T23:34:35.428Z,3.96
2023-04-15T23:37:02.098Z,3.69
2023-04-15T23:39:30.203Z,3.96
2023-04-15T23:41:57.537Z,4.54
2023-04-15T23:44:24.289Z,4.94
2023-04-15T23:46:51.445Z,5.12
2023-04-15T23:49:20.205Z,5.10
2023-04-15T23:51:47.235Z,4.92
2023-04-15T23:54:14.511Z,4.88
2023-04-15T23:56:41.237Z,4.98
2023-04-15T23:59:08.243Z,4.99
